Time,TemperatureF,DewpointF,PressureIn,WindDirection,WindDirectionDegrees,WindSpeedMPH,WindSpeedGustMPH,Humidity,HourlyPrecipIn,Conditions,Clouds,dailyrainin,SolarRadiationWatts/m^2,SoftwareType,DateUTC
2013-08-29 00:22:00,66.0,54.0,-100.00,SSW,207,0.0,11.0,65,0.00,,,0.00,0.000000,,2013-08-29 06:22:00,
2013-08-29 00:32:00,66.0,54.0,-100.00,SSW,207,0.0,11.0,65,0.00,,,0.00,0.000000,,2013-08-29 06:32:00,
2013-08-29 00:43:00,66.0,54.0,-100.00,SSW,207,0.0,11.0,65,0.00,,,0.00,0.000000,,2013-08-29 06:43:00,
2013-08-29 00:52:00,66.0,54.0,-100.00,SSW,207,0.0,11.0,65,0.00,,,0.00,0.000000,,2013-08-29 06:52:00,
2013-08-29 01:22:00,66.0,54.0,-100.00,SE,129,2.0,5.0,65,0.00,,,0.00,0.000000,,2013-08-29 07:22:00,
2013-08-29 01:32:00,66.0,54.0,-100.00,SE,129,2.0,5.0,65,0.00,,,0.00,0.000000,,2013-08-29 07:32:00,
2013-08-29 01:42:00,66.0,54.0,-100.00,SE,129,2.0,5.0,65,0.00,,,0.00,0.000000,,2013-08-29 07:42:00,
2013-08-29 01:53:00,66.0,54.0,-100.00,SE,129,2.0,5.0,65,0.00,,,0.00,0.000000,,2013-08-29 07:53:00,
2013-08-29 02:22:00,64.0,52.0,-100.00,ESE,120,7.0,13.0,64,0.00,,,0.00,0.000000,,2013-08-29 08:22:00,
2013-08-29 02:32:00,64.0,52.0,-100.00,ESE,120,7.0,13.0,64,0.00,,,0.00,0.000000,,2013-08-29 08:32:00,
2013-08-29 02:42:00,64.0,52.0,-100.00,ESE,120,7.0,13.0,64,0.00,,,0.00,0.000000,,2013-08-29 08:42:00,
2013-08-29 02:52:00,64.0,52.0,-100.00,ESE,120,7.0,13.0,64,0.00,,,0.00,0.000000,,2013-08-29 08:52:00,
2013-08-29 03:22:00,63.0,53.0,-100.00,East,99,3.0,11.0,70,0.00,,,0.00,0.000000,,2013-08-29 09:22:00,
2013-08-29 03:34:00,63.0,53.0,-100.00,East,99,3.0,11.0,70,0.00,,,0.00,0.000000,,2013-08-29 09:34:00,
2013-08-29 03:43:00,63.0,53.0,-100.00,East,99,3.0,11.0,70,0.00,,,0.00,0.000000,,2013-08-29 09:43:00,
2013-08-29 03:54:00,63.0,53.0,-100.00,East,99,3.0,11.0,70,0.00,,,0.00,0.000000,,2013-08-29 09:54:00,
2013-08-29 04:24:00,62.0,52.0,-100.00,ESE,105,3.0,7.0,71,0.00,,,0.00,0.000000,,2013-08-29 10:24:00,
2013-08-29 04:33:00,62.0,52.0,-100.00,ESE,105,3.0,7.0,71,0.00,,,0.00,0.000000,,2013-08-29 10:33:00,
2013-08-29 04:43:00,62.0,52.0,-100.00,ESE,105,3.0,7.0,71,0.00,,,0.00,0.000000,,2013-08-29 10:43:00,
2013-08-29 04:53:00,62.0,52.0,-100.00,ESE,105,3.0,7.0,71,0.00,,,0.00,0.000000,,2013-08-29 10:53:00,
2013-08-29 05:22:00,59.0,51.0,-100.00,ESE,110,4.0,8.0,75,0.00,,,0.00,0.000000,,2013-08-29 11:22:00,
2013-08-29 05:32:00,59.0,51.0,-100.00,ESE,110,4.0,8.0,75,0.00,,,0.00,0.000000,,2013-08-29 11:32:00,
2013-08-29 05:42:00,59.0,51.0,-100.00,ESE,110,4.0,8.0,75,0.00,,,0.00,0.000000,,2013-08-29 11:42:00,
2013-08-29 05:52:00,59.0,51.0,-100.00,ESE,110,4.0,8.0,75,0.00,,,0.00,0.000000,,2013-08-29 11:52:00,
2013-08-29 06:22:00,58.0,51.0,-100.00,East,96,3.0,8.0,77,0.00,,,0.00,0.000000,,2013-08-29 12:22:00,
2013-08-29 06:32:00,58.0,51.0,-100.00,East,96,3.0,8.0,77,0.00,,,0.00,0.000000,,2013-08-29 12:32:00,
2013-08-29 06:42:00,58.0,51.0,-100.00,East,96,3.0,8.0,77,0.00,,,0.00,0.000000,,2013-08-29 12:42:00,
2013-08-29 06:52:00,58.0,51.0,-100.00,East,96,3.0,8.0,77,0.00,,,0.00,0.000000,,2013-08-29 12:52:00,
2013-08-29 07:22:00,60.0,52.0,-100.00,ESE,105,2.0,4.0,74,0.00,,,0.00,2.000000,,2013-08-29 13:22:00,
2013-08-29 07:32:00,60.0,52.0,-100.00,ESE,105,2.0,4.0,74,0.00,,,0.00,2.000000,,2013-08-29 13:32:00,
2013-08-29 07:42:00,60.0,52.0,-100.00,ESE,105,2.0,4.0,74,0.00,,,0.00,2.000000,,2013-08-29 13:42:00,
2013-08-29 07:52:00,60.0,52.0,-100.00,ESE,105,2.0,4.0,74,0.00,,,0.00,2.000000,,2013-08-29 13:52:00,
2013-08-29 08:21:00,65.0,53.0,-100.00,East,93,6.0,9.0,65,0.00,,,0.00,132.000000,,2013-08-29 14:21:00,
2013-08-29 08:31:00,65.0,53.0,-100.00,East,93,6.0,9.0,65,0.00,,,0.00,132.000000,,2013-08-29 14:31:00,
2013-08-29 08:42:00,65.0,53.0,-100.00,East,93,6.0,9.0,65,0.00,,,0.00,132.000000,,2013-08-29 14:42:00,
2013-08-29 08:52:00,65.0,53.0,-100.00,East,93,6.0,9.0,65,0.00,,,0.00,132.000000,,2013-08-29 14:52:00,
2013-08-29 09:21:00,71.0,56.0,-100.00,SSE,155,3.0,9.0,59,0.00,,,-99.99,377.000000,,2013-08-29 15:21:00,
2013-08-29 09:33:00,71.0,56.0,-100.00,SSE,155,3.0,9.0,59,0.00,,,-99.99,377.000000,,2013-08-29 15:33:00,
2013-08-29 09:43:00,71.0,56.0,-100.00,SSE,155,3.0,9.0,59,0.00,,,-99.99,377.000000,,2013-08-29 15:43:00,
2013-08-29 09:53:00,71.0,56.0,-100.00,SSE,155,3.0,9.0,59,0.00,,,-99.99,377.000000,,2013-08-29 15:53:00,
2013-08-29 10:24:00,77.0,56.0,-100.00,NNW,343,2.0,5.0,48,0.00,,,0.00,624.000000,,2013-08-29 16:24:00,
2013-08-29 10:34:00,77.0,56.0,-100.00,NNW,343,2.0,5.0,48,0.00,,,0.00,624.000000,,2013-08-29 16:34:00,
2013-08-29 10:43:00,77.0,56.0,-100.00,NNW,343,2.0,5.0,48,0.00,,,0.00,624.000000,,2013-08-29 16:43:00,
2013-08-29 10:53:00,77.0,56.0,-100.00,NNW,343,2.0,5.0,48,0.00,,,0.00,624.000000,,2013-08-29 16:53:00,
2013-08-29 11:22:00,81.0,54.0,-100.00,NW,313,3.0,7.0,39,0.00,,,0.00,839.000000,,2013-08-29 17:22:00,
2013-08-29 11:34:00,81.0,54.0,-100.00,NW,313,3.0,7.0,39,0.00,,,0.00,839.000000,,2013-08-29 17:34:00,
2013-08-29 11:43:00,81.0,54.0,-100.00,NW,313,3.0,7.0,39,0.00,,,0.00,839.000000,,2013-08-29 17:43:00,
2013-08-29 11:52:00,81.0,54.0,-100.00,NW,313,3.0,7.0,39,0.00,,,0.00,839.000000,,2013-08-29 17:52:00,
2013-08-29 12:21:00,84.0,49.0,-100.00,WNW,283,4.0,9.0,30,0.00,,,0.00,1008.000000,,2013-08-29 18:21:00,
2013-08-29 12:32:00,84.0,49.0,-100.00,WNW,283,4.0,9.0,30,0.00,,,0.00,1008.000000,,2013-08-29 18:32:00,
2013-08-29 12:42:00,84.0,49.0,-100.00,WNW,283,4.0,9.0,30,0.00,,,0.00,1008.000000,,2013-08-29 18:42:00,
2013-08-29 12:52:00,84.0,49.0,-100.00,WNW,283,4.0,9.0,30,0.00,,,0.00,1008.000000,,2013-08-29 18:52:00,
2013-08-29 13:22:00,90.0,49.0,-100.00,NW,323,4.0,11.0,25,0.00,,,0.00,1134.000000,,2013-08-29 19:22:00,
2013-08-29 13:32:00,90.0,49.0,-100.00,NW,323,4.0,11.0,25,0.00,,,0.00,1134.000000,,2013-08-29 19:32:00,
2013-08-29 13:42:00,90.0,49.0,-100.00,NW,323,4.0,11.0,25,0.00,,,0.00,1134.000000,,2013-08-29 19:42:00,
2013-08-29 13:52:00,90.0,49.0,-100.00,NW,323,4.0,11.0,25,0.00,,,0.00,1134.000000,,2013-08-29 19:52:00,
2013-08-29 14:21:00,90.0,45.0,-100.00,NW,305,5.0,11.0,21,0.00,,,0.00,1128.000000,,2013-08-29 20:21:00,
2013-08-29 14:32:00,90.0,45.0,-100.00,NW,305,5.0,11.0,21,0.00,,,0.00,1128.000000,,2013-08-29 20:32:00,
2013-08-29 14:42:00,90.0,45.0,-100.00,NW,305,5.0,11.0,21,0.00,,,0.00,1128.000000,,2013-08-29 20:42:00,
2013-08-29 14:52:00,90.0,45.0,-100.00,NW,305,5.0,11.0,21,0.00,,,0.00,1128.000000,,2013-08-29 20:52:00,
2013-08-29 15:22:00,94.0,44.0,-100.00,WSW,252,4.0,13.0,18,0.00,,,0.00,1106.000000,,2013-08-29 21:22:00,
2013-08-29 15:33:00,94.0,44.0,-100.00,WSW,252,4.0,13.0,18,0.00,,,0.00,1106.000000,,2013-08-29 21:33:00,
2013-08-29 15:54:00,94.0,44.0,-100.00,WSW,252,4.0,13.0,18,0.00,,,0.00,1106.000000,,2013-08-29 21:54:00,
2013-08-29 16:24:00,94.0,45.0,-100.00,NW,317,5.0,14.0,19,0.00,,,0.00,962.000000,,2013-08-29 22:24:00,
2013-08-29 16:33:00,94.0,45.0,-100.00,NW,317,5.0,14.0,19,0.00,,,0.00,962.000000,,2013-08-29 22:33:00,
2013-08-29 16:43:00,94.0,45.0,-100.00,NW,317,5.0,14.0,19,0.00,,,0.00,962.000000,,2013-08-29 22:43:00,
2013-08-29 16:53:00,94.0,45.0,-100.00,NW,317,5.0,14.0,19,0.00,,,0.00,962.000000,,2013-08-29 22:53:00,
2013-08-29 17:22:00,89.0,40.0,-100.00,West,266,7.0,16.0,18,0.00,,,0.00,503.000000,,2013-08-29 23:22:00,
2013-08-29 17:33:00,89.0,40.0,-100.00,West,266,7.0,16.0,18,0.00,,,0.00,503.000000,,2013-08-29 23:33:00,
2013-08-29 17:42:00,89.0,40.0,-100.00,West,266,7.0,16.0,18,0.00,,,0.00,503.000000,,2013-08-29 23:42:00,
2013-08-29 17:53:00,89.0,40.0,-100.00,West,266,7.0,16.0,18,0.00,,,0.00,503.000000,,2013-08-29 23:53:00,
2013-08-29 18:21:00,83.0,48.0,-100.00,SE,137,10.0,29.0,30,0.00,,,0.00,207.000000,,2013-08-30 00:21:00,
2013-08-29 18:32:00,83.0,48.0,-100.00,SE,137,10.0,29.0,30,0.00,,,0.00,207.000000,,2013-08-30 00:32:00,
2013-08-29 18:42:00,83.0,48.0,-100.00,SE,137,10.0,29.0,30,0.00,,,0.00,207.000000,,2013-08-30 00:42:00,
2013-08-29 18:52:00,83.0,48.0,-100.00,SE,137,10.0,29.0,30,0.00,,,0.00,207.000000,,2013-08-30 00:52:00,
2013-08-29 19:22:00,79.0,51.0,-100.00,ESE,109,7.0,19.0,38,0.00,,,0.00,134.000000,,2013-08-30 01:22:00,
2013-08-29 19:32:00,79.0,51.0,-100.00,ESE,109,7.0,19.0,38,0.00,,,0.00,134.000000,,2013-08-30 01:32:00,
2013-08-29 19:42:00,79.0,51.0,-100.00,ESE,109,7.0,19.0,38,0.00,,,0.00,134.000000,,2013-08-30 01:42:00,
2013-08-29 19:52:00,79.0,51.0,-100.00,ESE,109,7.0,19.0,38,0.00,,,0.00,134.000000,,2013-08-30 01:52:00,
2013-08-29 20:21:00,77.0,50.0,-100.00,ESE,110,3.0,13.0,39,0.00,,,0.00,42.000000,,2013-08-30 02:21:00,
2013-08-29 20:32:00,77.0,50.0,-100.00,ESE,110,3.0,13.0,39,0.00,,,0.00,42.000000,,2013-08-30 02:32:00,
2013-08-29 20:42:00,77.0,50.0,-100.00,ESE,110,3.0,13.0,39,0.00,,,0.00,42.000000,,2013-08-30 02:42:00,
2013-08-29 20:52:00,77.0,50.0,-100.00,ESE,110,3.0,13.0,39,0.00,,,0.00,42.000000,,2013-08-30 02:52:00,
2013-08-29 21:22:00,72.0,52.0,-100.00,ESE,113,6.0,11.0,49,0.00,,,0.00,0.000000,,2013-08-30 03:22:00,
2013-08-29 21:34:00,72.0,52.0,-100.00,ESE,113,6.0,11.0,49,0.00,,,0.00,0.000000,,2013-08-30 03:34:00,
2013-08-29 21:43:00,72.0,52.0,-100.00,ESE,113,6.0,11.0,49,0.00,,,0.00,0.000000,,2013-08-30 03:43:00,
2013-08-29 21:54:00,72.0,52.0,-100.00,ESE,113,6.0,11.0,49,0.00,,,0.00,0.000000,,2013-08-30 03:54:00,
2013-08-29 22:24:00,70.0,53.0,-100.00,ESE,117,3.0,7.0,55,0.00,,,0.00,0.000000,,2013-08-30 04:24:00,
2013-08-29 22:33:00,70.0,53.0,-100.00,ESE,117,3.0,7.0,55,0.00,,,0.00,0.000000,,2013-08-30 04:33:00,
2013-08-29 22:44:00,70.0,53.0,-100.00,ESE,117,3.0,7.0,55,0.00,,,0.00,0.000000,,2013-08-30 04:44:00,
2013-08-29 22:54:00,70.0,53.0,-100.00,ESE,117,3.0,7.0,55,0.00,,,0.00,0.000000,,2013-08-30 04:54:00,
2013-08-29 23:23:00,72.0,53.0,-100.00,East,95,2.0,6.0,52,0.00,,,0.00,0.000000,,2013-08-30 05:23:00,
2013-08-29 23:34:00,72.0,53.0,-100.00,East,95,2.0,6.0,52,0.00,,,0.00,0.000000,,2013-08-30 05:34:00,
2013-08-29 23:42:00,72.0,53.0,-100.00,East,95,2.0,6.0,52,0.00,,,0.00,0.000000,,2013-08-30 05:42:00,
2013-08-29 23:52:00,72.0,53.0,-100.00,East,95,2.0,6.0,52,0.00,,,0.00,0.000000,,2013-08-30 05:52:00,